Time;durP1;ratioP1;P1;durP2;ratioP2;P2;SDS_P1;SDS_P2;PMS_P1;PMS_P2;Temp;Humidity;BMP_temperature;BMP_pressure;BME280_temperature;BME280_humidity;BME280_pressure;Samples;Min_cycle;Max_cycle;Signal;HPM_P1;HPM_P2
2023/08/02 00:01:13;;;;;;;1.77;0.88;;;18.30;99.90;;;;;;5073669;28;20055;-81
2023/08/02 00:03:39;;;;;;;3.17;0.93;;;18.30;99.90;;;;;;5071648;28;20070;-81
2023/08/02 00:06:04;;;;;;;2.22;0.95;;;18.30;99.90;;;;;;5073292;28;20046;-81
2023/08/02 00:08:32;;;;;;;5.05;1.15;;;18.30;99.90;;;;;;5075041;28;20025;-84
2023/08/02 00:10:59;;;;;;;3.05;1.00;;;18.20;99.90;;;;;;5075948;28;20064;-82
2023/08/02 00:13:24;;;;;;;3.67;1.23;;;18.30;99.90;;;;;;5076435;28;20028;-84
2023/08/02 00:15:53;;;;;;;2.20;0.95;;;18.20;99.90;;;;;;5077139;28;20086;-83
2023/08/02 00:18:18;;;;;;;4.95;1.17;;;18.30;99.90;;;;;;5076881;28;20042;-82
2023/08/02 00:20:44;;;;;;;3.28;0.95;;;18.20;99.90;;;;;;5076133;28;20111;-82
2023/08/02 00:23:10;;;;;;;2.63;0.98;;;18.30;99.90;;;;;;5077576;28;20028;-81
2023/08/02 00:25:35;;;;;;;5.40;1.05;;;18.30;99.90;;;;;;5077071;28;20095;-82
2023/08/02 00:28:01;;;;;;;1.48;0.85;;;18.30;99.90;;;;;;5076547;28;20162;-82
2023/08/02 00:30:30;;;;;;;2.30;0.80;;;18.30;99.90;;;;;;5076300;28;20035;-82
2023/08/02 00:32:55;;;;;;;3.80;1.30;;;18.20;99.90;;;;;;5077011;28;20106;-82
2023/08/02 00:35:21;;;;;;;2.10;0.98;;;18.20;99.90;;;;;;5077283;28;20029;-82
2023/08/02 00:37:46;;;;;;;2.38;1.02;;;18.20;99.90;;;;;;5076654;28;20027;-83
2023/08/02 00:40:12;;;;;;;2.05;0.95;;;18.20;99.90;;;;;;5075815;28;20036;-81
2023/08/02 00:42:38;;;;;;;3.15;0.95;;;18.20;99.90;;;;;;5075898;28;20086;-83
2023/08/02 00:45:04;;;;;;;2.35;0.77;;;18.30;99.90;;;;;;5076784;28;20032;-82
2023/08/02 00:47:33;;;;;;;4.97;1.17;;;18.30;99.90;;;;;;5076941;28;20078;-81
2023/08/02 00:50:00;;;;;;;1.42;0.90;;;18.20;99.90;;;;;;5076044;28;20028;-81
2023/08/02 00:52:26;;;;;;;1.63;0.60;;;18.30;99.90;;;;;;5076875;28;20024;-82
2023/08/02 00:54:52;;;;;;;2.17;1.00;;;18.30;99.90;;;;;;5075869;28;20816;-82
2023/08/02 00:57:17;;;;;;;2.22;0.88;;;18.30;99.90;;;;;;5075730;28;20028;-82
2023/08/02 00:59:43;;;;;;;2.17;0.95;;;18.30;99.90;;;;;;5076131;28;20083;-82
2023/08/02 01:02:09;;;;;;;2.30;1.10;;;18.30;99.90;;;;;;5075457;28;20141;-82
2023/08/02 01:04:36;;;;;;;2.35;0.95;;;18.30;99.90;;;;;;5076415;28;20107;-83
2023/08/02 01:07:04;;;;;;;2.65;1.27;;;18.30;99.90;;;;;;5075323;28;20060;-82
2023/08/02 01:09:56;;;;;;;2.47;0.88;;;18.30;99.90;;;;;;5075367;28;20029;-82
2023/08/02 01:12:24;;;;;;;3.67;0.90;;;18.30;99.90;;;;;;5064274;28;20047;-82
2023/08/02 01:14:52;;;;;;;2.38;0.63;;;18.30;99.90;;;;;;5076336;28;20036;-82
2023/08/02 01:17:19;;;;;;;2.10;0.80;;;18.30;99.90;;;;;;5076654;28;20036;-81
2023/08/02 01:19:44;;;;;;;3.83;1.02;;;18.30;99.90;;;;;;5074483;28;20031;-82
2023/08/02 01:22:10;;;;;;;4.90;1.17;;;18.30;99.90;;;;;;5075761;28;20029;-83
2023/08/02 01:24:36;;;;;;;3.58;0.90;;;18.30;99.90;;;;;;5076154;28;20028;-83
2023/08/02 01:27:09;;;;;;;3.67;1.20;;;18.30;99.90;;;;;;5075343;28;20035;-82
2023/08/02 01:29:41;;;;;;;3.08;1.00;;;18.30;99.90;;;;;;5075496;28;20587;-83
2023/08/02 01:32:09;;;;;;;1.65;0.93;;;18.30;99.90;;;;;;5076564;28;20024;-82
2023/08/02 01:34:35;;;;;;;2.92;0.75;;;18.30;99.90;;;;;;5075751;28;20033;-83
2023/08/02 01:37:01;;;;;;;4.28;0.90;;;18.30;99.90;;;;;;5075521;28;20107;-83
2023/08/02 01:39:26;;;;;;;3.20;1.40;;;18.30;99.90;;;;;;5075107;28;20064;-83
2023/08/02 01:41:52;;;;;;;1.98;1.10;;;18.30;99.90;;;;;;5074581;28;20035;-83
2023/08/02 01:44:17;;;;;;;2.78;0.98;;;18.30;99.90;;;;;;5075180;28;20506;-82
2023/08/02 01:46:43;;;;;;;3.55;0.80;;;18.30;99.90;;;;;;5074450;28;20021;-82
2023/08/02 01:49:09;;;;;;;1.33;0.82;;;18.30;99.90;;;;;;5075144;28;20031;-82
2023/08/02 01:51:34;;;;;;;2.10;0.85;;;18.30;99.90;;;;;;5074981;28;20470;-82
2023/08/02 01:54:00;;;;;;;1.55;0.77;;;18.30;99.90;;;;;;5074545;28;20044;-82
2023/08/02 01:56:25;;;;;;;4.32;1.05;;;18.30;99.90;;;;;;5075407;28;20153;-82
2023/08/02 01:58:51;;;;;;;2.70;1.20;;;18.20;99.90;;;;;;5074984;28;20028;-82
2023/08/02 02:01:16;;;;;;;3.38;1.27;;;18.20;99.90;;;;;;5075706;28;20044;-82
2023/08/02 02:03:42;;;;;;;2.47;1.00;;;18.30;99.90;;;;;;5074209;28;20028;-83
2023/08/02 02:06:07;;;;;;;2.33;0.93;;;18.20;99.90;;;;;;5075234;28;20086;-83
2023/08/02 02:08:33;;;;;;;1.45;0.90;;;18.30;99.90;;;;;;5074622;28;20029;-82
2023/08/02 02:10:59;;;;;;;2.58;1.10;;;18.30;99.90;;;;;;5074622;28;20040;-83
2023/08/02 02:13:25;;;;;;;4.13;1.00;;;18.30;99.90;;;;;;5074615;28;20028;-82
2023/08/02 02:15:51;;;;;;;1.80;0.80;;;18.30;99.90;;;;;;5073708;28;20453;-83
2023/08/02 02:18:16;;;;;;;3.08;1.08;;;18.30;99.90;;;;;;5074255;28;20481;-82
2023/08/02 02:20:42;;;;;;;5.32;1.17;;;18.30;99.90;;;;;;5073889;28;20048;-83
2023/08/02 02:23:08;;;;;;;2.42;0.80;;;18.20;99.90;;;;;;5074109;28;20039;-83
2023/08/02 02:25:34;;;;;;;1.98;1.10;;;18.20;99.90;;;;;;5075334;28;20532;-83
2023/08/02 02:27:59;;;;;;;3.78;1.00;;;18.20;99.90;;;;;;5073919;28;20023;-83
2023/08/02 02:30:25;;;;;;;3.42;1.00;;;18.20;99.90;;;;;;5073321;28;20036;-83
2023/08/02 02:32:52;;;;;;;3.17;1.08;;;18.20;99.90;;;;;;5075277;28;20031;-83
2023/08/02 02:35:18;;;;;;;4.68;0.90;;;18.20;99.90;;;;;;5073996;28;20056;-83
2023/08/02 02:37:43;;;;;;;3.53;1.00;;;18.20;99.90;;;;;;5074601;28;20428;-83
2023/08/02 02:40:09;;;;;;;2.53;1.05;;;18.20;99.90;;;;;;5073924;28;20043;-83
2023/08/02 02:42:38;;;;;;;2.90;0.82;;;18.20;99.90;;;;;;5074269;28;20031;-82
2023/08/02 02:45:04;;;;;;;1.60;0.80;;;18.30;99.90;;;;;;5073333;28;20034;-83
2023/08/02 02:47:30;;;;;;;4.90;1.35;;;18.30;99.90;;;;;;5074905;28;20028;-83
2023/08/02 02:49:55;;;;;;;2.45;1.00;;;18.30;99.90;;;;;;5073274;28;20020;-82
2023/08/02 02:52:21;;;;;;;1.60;1.10;;;18.30;99.90;;;;;;5075083;28;20032;-83
2023/08/02 02:54:47;;;;;;;2.55;1.00;;;18.30;99.90;;;;;;5073378;28;20025;-82
2023/08/02 02:57:12;;;;;;;2.47;1.10;;;18.40;99.90;;;;;;5073775;28;20484;-82
2023/08/02 02:59:38;;;;;;;1.88;0.90;;;18.30;99.90;;;;;;5073261;28;20178;-81
2023/08/02 03:02:03;;;;;;;3.72;1.60;;;18.40;99.90;;;;;;5074031;28;20064;-83
2023/08/02 03:04:29;;;;;;;2.30;0.90;;;18.40;99.90;;;;;;5074626;28;20052;-82
2023/08/02 03:06:55;;;;;;;6.20;1.05;;;18.40;99.90;;;;;;5073892;28;20035;-83
2023/08/02 03:09:20;;;;;;;1.85;1.00;;;18.40;99.90;;;;;;5073268;28;20036;-83
2023/08/02 03:11:46;;;;;;;3.78;1.20;;;18.50;99.90;;;;;;5074479;28;20033;-82
2023/08/02 03:14:12;;;;;;;2.63;0.90;;;18.40;99.90;;;;;;5073644;28;20092;-83
2023/08/02 03:16:38;;;;;;;3.50;0.80;;;18.50;99.90;;;;;;5073347;28;20035;-83
2023/08/02 03:19:05;;;;;;;2.80;1.13;;;18.40;99.90;;;;;;5072636;28;20036;-82
2023/08/02 03:21:32;;;;;;;1.98;0.90;;;18.50;99.90;;;;;;5073950;28;20060;-82
2023/08/02 03:23:57;;;;;;;3.00;1.05;;;18.50;99.90;;;;;;5072888;28;20028;-82
2023/08/02 03:26:23;;;;;;;2.97;0.93;;;18.50;99.90;;;;;;5073367;28;20020;-82
2023/08/02 03:28:48;;;;;;;2.95;1.10;;;18.50;99.90;;;;;;5073906;28;20027;-82
2023/08/02 03:31:14;;;;;;;3.10;1.10;;;18.50;99.90;;;;;;5072955;28;20024;-82
2023/08/02 03:33:41;;;;;;;3.88;1.00;;;18.50;99.90;;;;;;5074040;28;20528;-81
2023/08/02 03:36:07;;;;;;;3.15;1.00;;;18.50;99.90;;;;;;5074248;28;20025;-81
2023/08/02 03:38:32;;;;;;;2.05;1.17;;;18.50;99.90;;;;;;5074255;28;20154;-83
2023/08/02 03:40:58;;;;;;;1.85;0.90;;;18.50;99.90;;;;;;5072414;28;20032;-83
2023/08/02 03:43:24;;;;;;;3.38;1.10;;;18.50;99.90;;;;;;5074183;28;20024;-82
2023/08/02 03:45:49;;;;;;;4.32;1.00;;;18.50;99.90;;;;;;5072947;28;20017;-83
2023/08/02 03:48:16;;;;;;;3.53;0.85;;;18.40;99.90;;;;;;5073250;28;20139;-82
2023/08/02 03:50:41;;;;;;;2.60;0.90;;;18.50;99.90;;;;;;5073137;28;20389;-82
2023/08/02 03:53:07;;;;;;;4.30;1.17;;;18.50;99.90;;;;;;5066636;28;20035;-80
2023/08/02 03:55:33;;;;;;;3.22;1.02;;;18.50;99.90;;;;;;5055817;28;20032;-80
2023/08/02 03:57:58;;;;;;;1.58;0.85;;;18.40;99.90;;;;;;5054980;28;20055;-82
2023/08/02 04:00:24;;;;;;;4.95;1.10;;;18.40;99.90;;;;;;5055532;28;20375;-82
2023/08/02 04:02:50;;;;;;;1.63;1.00;;;18.40;99.90;;;;;;5054984;28;20029;-82
2023/08/02 04:05:15;;;;;;;1.77;1.17;;;18.30;99.90;;;;;;5055767;28;20031;-82
2023/08/02 04:07:41;;;;;;;1.73;1.00;;;18.30;99.90;;;;;;5055553;28;20032;-82
2023/08/02 04:10:07;;;;;;;3.63;1.30;;;18.20;99.90;;;;;;5058908;28;20037;-82
2023/08/02 04:12:32;;;;;;;2.97;1.00;;;18.20;99.90;;;;;;5048003;28;20478;-82
2023/08/02 04:14:58;;;;;;;1.65;0.80;;;18.20;99.90;;;;;;5054787;28;20036;-81
2023/08/02 04:17:25;;;;;;;3.28;1.10;;;18.10;99.90;;;;;;5072734;28;20127;-81
2023/08/02 04:19:51;;;;;;;3.15;1.10;;;18.10;99.90;;;;;;5054847;28;20086;-81
2023/08/02 04:22:16;;;;;;;2.45;1.40;;;18.00;99.90;;;;;;5055190;28;20021;-81
2023/08/02 04:24:42;;;;;;;3.05;1.33;;;18.00;99.90;;;;;;5055335;28;20024;-82
2023/08/02 04:27:08;;;;;;;2.90;1.20;;;18.00;99.90;;;;;;5055603;28;20032;-82
2023/08/02 04:29:33;;;;;;;3.90;1.45;;;18.00;99.90;;;;;;5056174;28;20024;-82
2023/08/02 04:31:59;;;;;;;4.22;1.27;;;18.00;99.90;;;;;;5055729;28;20028;-81
2023/08/02 04:34:24;;;;;;;4.43;1.10;;;17.90;99.90;;;;;;5055132;28;20089;-81
2023/08/02 04:36:51;;;;;;;3.22;1.38;;;17.90;99.90;;;;;;5055427;28;20024;-81
2023/08/02 04:39:17;;;;;;;1.98;1.38;;;17.90;99.90;;;;;;5055505;28;20056;-82
2023/08/02 04:41:42;;;;;;;3.03;1.42;;;17.80;99.90;;;;;;5055222;28;20071;-81
2023/08/02 04:44:08;;;;;;;4.25;1.50;;;17.80;99.90;;;;;;5072315;28;20033;-82
2023/08/02 04:46:33;;;;;;;1.95;1.17;;;17.80;99.90;;;;;;5055341;28;20017;-82
2023/08/02 04:48:59;;;;;;;2.75;1.17;;;17.80;99.90;;;;;;5072648;28;20478;-82
2023/08/02 04:51:25;;;;;;;2.22;1.00;;;17.70;99.90;;;;;;5053193;28;20024;-82
2023/08/02 04:53:50;;;;;;;2.60;1.40;;;17.70;99.90;;;;;;5073261;28;20033;-82
2023/08/02 04:56:17;;;;;;;2.60;1.20;;;17.70;99.90;;;;;;5057965;28;20485;-81
2023/08/02 04:58:43;;;;;;;6.57;1.45;;;17.70;99.90;;;;;;5058439;28;20029;-82
2023/08/02 05:01:09;;;;;;;1.90;1.20;;;17.70;99.90;;;;;;5075028;28;20056;-82
2023/08/02 05:03:35;;;;;;;2.55;1.20;;;17.70;99.90;;;;;;5058782;28;20393;-82
2023/08/02 05:06:02;;;;;;;2.30;1.25;;;17.60;99.90;;;;;;5058442;28;20032;-82
2023/08/02 05:08:34;;;;;;;3.63;1.40;;;17.60;99.90;;;;;;5076454;28;20032;-82
2023/08/02 05:10:59;;;;;;;4.25;1.50;;;17.60;99.90;;;;;;5055208;28;20079;-82
2023/08/02 05:13:26;;;;;;;2.55;1.27;;;17.70;99.90;;;;;;5039015;28;20068;-81
2023/08/02 05:15:54;;;;;;;4.10;1.63;;;17.70;99.90;;;;;;5055455;28;20537;-82
2023/08/02 05:18:19;;;;;;;3.95;1.50;;;17.70;99.90;;;;;;5071362;28;20384;-81
2023/08/02 05:20:45;;;;;;;3.28;1.50;;;17.70;99.90;;;;;;5058164;28;20092;-81
2023/08/02 05:23:11;;;;;;;2.15;1.35;;;17.70;99.90;;;;;;5061864;28;20032;-82
2023/08/02 05:25:36;;;;;;;3.88;1.48;;;17.80;99.90;;;;;;5056278;28;20028;-82
2023/08/02 05:28:02;;;;;;;2.13;1.30;;;17.70;99.90;;;;;;5049770;28;20465;-82
2023/08/02 05:30:30;;;;;;;2.55;1.30;;;17.80;99.90;;;;;;5075671;28;20040;-81
2023/08/02 05:32:56;;;;;;;3.35;1.27;;;17.70;99.90;;;;;;5075925;28;20032;-81
2023/08/02 05:35:23;;;;;;;5.03;1.60;;;17.70;99.90;;;;;;5076338;28;20026;-80
2023/08/02 05:37:49;;;;;;;3.17;1.60;;;17.70;99.90;;;;;;5075926;28;20027;-82
2023/08/02 05:40:15;;;;;;;2.80;1.65;;;17.70;99.90;;;;;;5075817;28;20253;-81
2023/08/02 05:42:40;;;;;;;2.85;1.42;;;17.70;99.90;;;;;;5075621;28;20032;-82
2023/08/02 05:45:06;;;;;;;2.15;1.30;;;17.70;99.90;;;;;;5075107;28;20048;-82
2023/08/02 05:47:33;;;;;;;3.00;1.48;;;17.70;99.90;;;;;;5058063;28;20534;-81
2023/08/02 05:49:58;;;;;;;1.75;1.23;;;17.70;99.90;;;;;;5057733;28;20029;-82
2023/08/02 05:52:24;;;;;;;5.25;1.50;;;17.70;99.90;;;;;;5075025;28;20029;-82
2023/08/02 05:54:50;;;;;;;4.97;1.45;;;17.70;99.90;;;;;;5057454;28;20469;-83
2023/08/02 05:57:16;;;;;;;3.67;1.50;;;17.70;99.90;;;;;;5075142;28;20027;-84
2023/08/02 05:59:41;;;;;;;4.95;1.60;;;17.70;99.90;;;;;;5057678;28;20048;-83
2023/08/02 06:02:07;;;;;;;3.17;1.35;;;17.80;99.90;;;;;;5056948;28;20241;-83
2023/08/02 06:04:35;;;;;;;4.65;1.73;;;17.80;99.90;;;;;;5056831;28;20077;-82
2023/08/02 06:07:01;;;;;;;1.75;1.38;;;17.80;99.90;;;;;;5056964;28;20028;-82
2023/08/02 06:09:27;;;;;;;3.10;1.10;;;17.80;99.90;;;;;;5056942;28;20046;-83
2023/08/02 06:11:52;;;;;;;4.38;1.35;;;17.80;99.90;;;;;;5057188;28;20029;-86
2023/08/02 06:14:18;;;;;;;3.90;1.48;;;17.80;99.90;;;;;;5075138;28;20048;-86
2023/08/02 06:16:43;;;;;;;2.70;1.30;;;17.80;99.90;;;;;;5075461;28;20059;-84
2023/08/02 06:19:09;;;;;;;2.47;1.30;;;17.90;99.90;;;;;;5074771;28;20046;-84
2023/08/02 06:21:35;;;;;;;2.60;1.48;;;17.90;99.90;;;;;;5057141;28;20030;-83
2023/08/02 06:24:01;;;;;;;2.05;1.38;;;17.90;99.90;;;;;;5057245;28;20047;-84
2023/08/02 06:26:27;;;;;;;4.63;1.58;;;17.90;99.90;;;;;;5075282;28;20024;-84
2023/08/02 06:28:53;;;;;;;3.15;1.60;;;18.00;99.90;;;;;;5041164;28;20086;-84
2023/08/02 06:31:19;;;;;;;3.33;1.60;;;18.00;99.90;;;;;;5044127;28;20044;-84
2023/08/02 06:33:44;;;;;;;3.08;1.40;;;18.00;99.90;;;;;;5075006;28;20036;-85
2023/08/02 06:36:10;;;;;;;2.58;1.40;;;18.10;99.90;;;;;;5074405;28;20033;-85
2023/08/02 06:38:36;;;;;;;2.20;1.25;;;18.10;99.90;;;;;;5074926;28;20052;-85
2023/08/02 06:41:03;;;;;;;3.40;1.35;;;18.10;99.90;;;;;;5056163;28;20066;-86
2023/08/02 06:43:29;;;;;;;1.63;1.20;;;18.10;99.90;;;;;;5056799;28;20040;-83
2023/08/02 06:45:54;;;;;;;2.65;1.60;;;18.10;99.90;;;;;;5074071;28;20024;-82
2023/08/02 06:48:24;;;;;;;4.07;1.40;;;18.10;99.90;;;;;;5070520;28;20031;-83
2023/08/02 06:50:51;;;;;;;4.25;1.38;;;18.10;99.90;;;;;;5073312;28;20032;-85
2023/08/02 06:53:17;;;;;;;3.78;1.50;;;18.10;99.90;;;;;;5057630;28;20056;-83
2023/08/02 06:55:42;;;;;;;4.07;1.90;;;18.10;99.90;;;;;;5056624;28;20020;-83
2023/08/02 06:58:08;;;;;;;2.75;1.50;;;18.20;99.90;;;;;;5074061;28;20119;-83
2023/08/02 07:00:33;;;;;;;4.88;1.27;;;18.20;99.90;;;;;;5056452;28;20057;-83
2023/08/02 07:03:00;;;;;;;3.03;1.58;;;18.20;99.90;;;;;;5056025;28;20023;-84
2023/08/02 07:05:28;;;;;;;2.58;1.73;;;18.20;99.90;;;;;;5074291;28;20457;-84
2023/08/02 07:07:55;;;;;;;3.13;1.38;;;18.30;99.90;;;;;;5055999;28;20027;-84
2023/08/02 07:10:21;;;;;;;3.60;1.30;;;18.30;99.90;;;;;;5055950;28;20086;-84
2023/08/02 07:12:48;;;;;;;2.15;1.30;;;18.30;99.90;;;;;;5074389;28;20477;-84
2023/08/02 07:15:14;;;;;;;4.90;1.50;;;18.30;99.90;;;;;;5056479;28;20060;-85
2023/08/02 07:17:40;;;;;;;2.67;1.27;;;18.30;99.90;;;;;;5056308;28;20025;-85
2023/08/02 07:20:06;;;;;;;1.45;1.25;;;18.40;99.90;;;;;;5056183;28;20043;-83
2023/08/02 07:22:31;;;;;;;1.98;1.30;;;18.40;99.90;;;;;;5055018;28;20354;-85
2023/08/02 07:24:57;;;;;;;3.38;1.60;;;18.40;99.90;;;;;;5055669;28;20618;-86
2023/08/02 07:27:23;;;;;;;2.80;1.52;;;18.40;99.90;;;;;;5055743;28;20032;-85
2023/08/02 07:29:49;;;;;;;4.13;1.60;;;18.40;99.90;;;;;;5073905;28;20500;-86
2023/08/02 07:32:15;;;;;;;2.20;1.20;;;18.40;99.90;;;;;;5056234;28;20043;-86
2023/08/02 07:34:40;;;;;;;2.10;1.10;;;18.40;99.90;;;;;;5056176;28;20033;-84
2023/08/02 07:37:06;;;;;;;1.65;1.25;;;18.50;99.90;;;;;;5073776;28;20035;-85
2023/08/02 07:39:32;;;;;;;1.35;1.08;;;18.50;99.90;;;;;;5056179;28;20461;-86
2023/08/02 07:41:57;;;;;;;1.80;1.20;;;18.50;99.90;;;;;;5055280;28;20032;-86
2023/08/02 07:44:23;;;;;;;1.33;1.10;;;18.50;99.90;;;;;;5073768;28;20099;-86
2023/08/02 07:46:50;;;;;;;1.63;1.08;;;18.50;99.90;;;;;;5056259;28;20105;-88
2023/08/02 07:49:16;;;;;;;3.17;1.20;;;18.50;99.90;;;;;;5056100;28;20032;-88
2023/08/02 07:51:41;;;;;;;2.20;1.05;;;18.50;99.90;;;;;;5073598;28;20033;-85
2023/08/02 07:54:07;;;;;;;1.90;0.90;;;18.50;99.90;;;;;;5072572;28;20060;-87
2023/08/02 07:56:32;;;;;;;1.85;1.30;;;18.70;99.90;;;;;;5073640;28;20377;-85
2023/08/02 07:58:58;;;;;;;1.40;1.10;;;18.70;99.90;;;;;;5055748;28;20028;-83
2023/08/02 08:01:24;;;;;;;2.42;1.40;;;18.70;99.90;;;;;;5055787;28;20029;-84
2023/08/02 08:03:49;;;;;;;1.98;1.38;;;18.60;99.90;;;;;;5055819;28;20469;-86
2023/08/02 08:06:19;;;;;;;1.58;1.10;;;18.70;99.90;;;;;;5055338;28;20487;-84
2023/08/02 08:08:45;;;;;;;2.53;1.40;;;18.80;99.90;;;;;;5052385;28;20067;-82
2023/08/02 08:11:10;;;;;;;2.65;1.50;;;18.70;99.90;;;;;;5073197;28;20036;-82
2023/08/02 08:13:36;;;;;;;1.90;1.00;;;18.70;99.90;;;;;;5073540;28;20493;-81
2023/08/02 08:16:02;;;;;;;3.72;1.23;;;18.70;99.90;;;;;;5050692;28;20031;-82
2023/08/02 08:18:31;;;;;;;2.17;1.38;;;18.70;99.90;;;;;;5073547;28;20103;-82
2023/08/02 08:20:57;;;;;;;2.65;1.40;;;18.70;99.90;;;;;;5056547;28;20055;-83
2023/08/02 08:23:22;;;;;;;3.20;1.20;;;18.70;99.90;;;;;;5055662;28;20060;-82
2023/08/02 08:25:48;;;;;;;2.03;0.98;;;18.70;99.90;;;;;;5073154;28;20036;-81
2023/08/02 08:28:13;;;;;;;2.63;1.20;;;18.70;99.90;;;;;;5052141;28;20067;-82
2023/08/02 08:30:39;;;;;;;2.20;1.30;;;18.60;99.90;;;;;;5077013;28;20028;-83
2023/08/02 08:33:04;;;;;;;2.80;1.13;;;18.70;99.90;;;;;;5058743;28;20553;-84
2023/08/02 08:35:34;;;;;;;3.88;1.50;;;18.70;99.90;;;;;;5059700;28;20024;-87
2023/08/02 08:37:59;;;;;;;2.15;1.50;;;18.70;99.90;;;;;;5059134;28;20032;-83
2023/08/02 08:40:25;;;;;;;3.28;1.88;;;18.70;99.90;;;;;;5059413;28;20080;-83
2023/08/02 08:42:53;;;;;;;6.53;1.60;;;18.70;99.90;;;;;;5059122;28;20025;-86
2023/08/02 08:45:20;;;;;;;1.80;1.35;;;18.70;99.90;;;;;;5058859;28;20036;-83
2023/08/02 08:47:46;;;;;;;3.33;1.60;;;18.70;99.90;;;;;;5058968;28;20032;-84
2023/08/02 08:50:12;;;;;;;3.15;1.42;;;18.80;99.90;;;;;;5058583;28;20487;-82
2023/08/02 08:52:40;;;;;;;3.22;1.58;;;18.80;99.90;;;;;;5077092;28;20605;-83
2023/08/02 08:55:12;;;;;;;3.58;1.63;;;18.90;99.90;;;;;;5058662;28;20025;-83
2023/08/02 08:57:39;;;;;;;3.40;1.70;;;19.00;99.90;;;;;;5076638;28;20033;-82
2023/08/02 09:00:05;;;;;;;2.53;1.50;;;19.10;99.90;;;;;;5075967;28;20134;-84
2023/08/02 09:02:32;;;;;;;3.15;2.08;;;19.20;99.90;;;;;;5058852;28;20025;-83
2023/08/02 09:05:00;;;;;;;4.22;1.88;;;19.30;99.90;;;;;;5058126;28;20120;-82
2023/08/02 09:07:26;;;;;;;4.07;1.77;;;19.30;99.90;;;;;;5058764;28;20056;-84
2023/08/02 09:09:51;;;;;;;3.15;1.92;;;19.30;99.90;;;;;;5058960;28;20059;-84
2023/08/02 09:12:17;;;;;;;4.50;1.90;;;19.20;99.90;;;;;;5076824;28;20055;-84
2023/08/02 09:15:05;;;;;;;4.30;1.88;;;19.20;99.90;;;;;;5058960;28;20082;-84
2023/08/02 09:17:51;;;;;;;3.10;1.90;;;19.20;99.90;;;;;;5076761;28;20098;-83
2023/08/02 09:20:19;;;;;;;2.95;2.05;;;19.20;99.90;;;;;;5075710;28;20040;-83
2023/08/02 09:22:45;;;;;;;5.32;2.17;;;19.20;99.90;;;;;;5056208;28;20089;-83
2023/08/02 09:25:21;;;;;;;3.20;1.85;;;19.10;99.90;;;;;;5053930;28;20036;-83
2023/08/02 09:27:47;;;;;;;4.20;1.75;;;19.10;99.90;;;;;;5065655;28;20098;-84
2023/08/02 09:30:23;;;;;;;2.42;2.05;;;19.00;99.90;;;;;;5069178;28;20024;-85
2023/08/02 09:32:59;;;;;;;6.72;2.33;;;18.90;99.90;;;;;;5058667;28;20032;-84
2023/08/02 09:35:25;;;;;;;3.45;2.20;;;18.90;99.90;;;;;;5075844;28;20024;-83
2023/08/02 09:37:50;;;;;;;4.65;2.03;;;18.90;99.90;;;;;;5066592;28;20024;-84
2023/08/02 09:40:16;;;;;;;4.97;2.05;;;18.90;99.90;;;;;;5056700;28;20127;-83
2023/08/02 09:42:42;;;;;;;4.65;1.80;;;19.00;99.90;;;;;;5057651;28;20033;-84
2023/08/02 09:45:08;;;;;;;6.00;2.10;;;19.10;99.90;;;;;;5056619;28;20029;-84
2023/08/02 09:47:34;;;;;;;3.08;1.92;;;19.30;99.90;;;;;;5074071;28;20032;-84
2023/08/02 09:50:08;;;;;;;4.40;2.08;;;19.40;99.90;;;;;;5043239;28;20108;-83
2023/08/02 09:52:36;;;;;;;4.65;2.20;;;19.40;99.90;;;;;;5071537;28;20031;-83
2023/08/02 09:55:02;;;;;;;3.90;2.15;;;19.30;99.90;;;;;;5067461;28;20028;-83
2023/08/02 09:57:29;;;;;;;2.88;1.80;;;19.30;99.90;;;;;;5052198;28;20386;-85
2023/08/02 10:00:04;;;;;;;3.15;1.88;;;19.30;99.90;;;;;;5074061;28;20706;-83
2023/08/02 10:02:30;;;;;;;5.88;2.10;;;19.20;99.90;;;;;;5057172;28;20029;-84
2023/08/02 10:04:59;;;;;;;3.15;2.03;;;19.20;99.90;;;;;;5074753;28;20048;-85
2023/08/02 10:07:33;;;;;;;4.47;2.05;;;19.20;99.90;;;;;;5057180;28;20474;-84
2023/08/02 10:10:07;;;;;;;5.75;2.22;;;19.20;99.90;;;;;;5057038;28;20055;-83
2023/08/02 10:12:38;;;;;;;3.75;1.92;;;19.10;99.90;;;;;;5057769;28;20029;-84
2023/08/02 10:15:04;;;;;;;4.57;2.00;;;19.10;99.90;;;;;;5074790;28;20111;-82
2023/08/02 10:17:31;;;;;;;4.13;2.20;;;19.00;99.90;;;;;;5057417;28;20028;-83
2023/08/02 10:19:59;;;;;;;4.57;2.17;;;19.00;99.90;;;;;;5056968;28;20375;-86
2023/08/02 10:22:26;;;;;;;4.65;2.30;;;18.90;99.90;;;;;;5057270;28;20054;-83
2023/08/02 10:24:52;;;;;;;4.25;1.90;;;18.90;99.90;;;;;;5046551;28;20048;-82
2023/08/02 10:27:19;;;;;;;4.47;2.13;;;19.00;99.90;;;;;;5061052;28;20107;-82
2023/08/02 10:29:47;;;;;;;4.32;2.15;;;19.00;99.90;;;;;;5056420;28;20028;-82
2023/08/02 10:32:18;;;;;;;2.65;1.80;;;19.00;99.90;;;;;;5056593;28;20051;-84
2023/08/02 10:34:51;;;;;;;3.58;1.95;;;19.00;99.90;;;;;;5057202;28;20086;-83
2023/08/02 10:37:18;;;;;;;5.25;1.95;;;19.00;99.90;;;;;;5056586;28;20059;-83
2023/08/02 10:39:51;;;;;;;3.67;2.13;;;19.00;99.90;;;;;;5056689;28;20389;-85
2023/08/02 10:42:25;;;;;;;5.60;1.92;;;19.00;99.90;;;;;;5056387;28;20056;-84
2023/08/02 10:44:54;;;;;;;4.45;1.80;;;19.00;99.90;;;;;;5056348;28;20428;-80
2023/08/02 10:47:33;;;;;;;3.92;2.20;;;19.10;99.90;;;;;;5056357;28;20032;-81
2023/08/02 10:50:02;;;;;;;5.15;1.88;;;19.20;99.90;;;;;;5073689;28;20028;-81
2023/08/02 10:52:36;;;;;;;4.50;1.85;;;19.20;99.90;;;;;;5055349;28;20389;-82
2023/08/02 10:55:12;;;;;;;5.93;2.15;;;19.20;99.90;;;;;;5054844;28;20385;-81
2023/08/02 10:57:53;;;;;;;2.67;2.08;;;19.30;99.90;;;;;;5056265;28;20077;-81
2023/08/02 11:00:23;;;;;;;;;;;19.30;99.90;;;;;;5055740;28;20743;-82
2023/08/02 11:02:50;;;;;;;4.65;2.30;;;19.30;99.90;;;;;;5055441;28;19916;-79
2023/08/02 11:05:35;;;;;;;6.00;2.55;;;19.30;99.90;;;;;;5072764;28;20527;-83
2023/08/02 11:08:01;;;;;;;4.53;2.17;;;19.30;99.90;;;;;;5055978;28;20028;-80
2023/08/02 11:10:27;;;;;;;3.08;2.22;;;19.30;99.90;;;;;;5056545;28;20032;-83
2023/08/02 11:12:54;;;;;;;4.32;2.45;;;19.30;99.90;;;;;;5056577;28;20029;-85
2023/08/02 11:15:20;;;;;;;4.38;2.38;;;19.40;99.90;;;;;;5056081;28;20039;-83
2023/08/02 11:17:58;;;;;;;4.72;2.50;;;19.40;99.90;;;;;;5055720;28;20029;-83
2023/08/02 11:20:26;;;;;;;4.15;2.53;;;19.40;99.90;;;;;;5054938;28;20036;-80
2023/08/02 11:22:53;;;;;;;4.63;2.70;;;19.40;99.90;;;;;;5073596;28;20025;-83
2023/08/02 11:25:20;;;;;;;5.78;2.42;;;19.50;99.90;;;;;;5048132;28;20041;-82
2023/08/02 11:27:46;;;;;;;3.38;2.28;;;19.50;99.90;;;;;;5054604;28;20454;-83
2023/08/02 11:30:12;;;;;;;4.65;3.05;;;19.50;99.90;;;;;;5053073;28;20090;-82
2023/08/02 11:32:45;;;;;;;5.72;2.95;;;19.60;99.90;;;;;;5073188;28;20385;-83
2023/08/02 11:35:19;;;;;;;4.75;2.80;;;19.60;99.90;;;;;;5055367;28;20473;-83
2023/08/02 11:37:45;;;;;;;7.13;3.03;;;19.70;99.90;;;;;;5055977;28;20025;-83
2023/08/02 11:40:11;;;;;;;7.07;2.90;;;19.80;99.90;;;;;;5055036;28;20039;-83
2023/08/02 11:42:53;;;;;;;6.40;2.60;;;19.80;99.90;;;;;;5055064;28;20063;-83
2023/08/02 11:45:29;;;;;;;7.22;2.90;;;19.80;99.90;;;;;;5071821;28;20500;-83
2023/08/02 11:47:55;;;;;;;4.22;2.65;;;19.80;99.90;;;;;;5054225;28;20052;-83
2023/08/02 11:50:25;;;;;;;5.20;3.00;;;19.80;99.90;;;;;;5055146;28;20445;-83
2023/08/02 11:52:51;;;;;;;3.53;2.60;;;19.70;99.90;;;;;;5065444;28;20029;-83
2023/08/02 11:55:19;;;;;;;5.13;2.97;;;19.70;99.90;;;;;;5055008;28;20150;-83
2023/08/02 11:57:46;;;;;;;4.85;3.10;;;19.70;99.90;;;;;;5073564;28;20099;-84
2023/08/02 12:00:12;;;;;;;4.80;2.70;;;19.70;99.90;;;;;;5054272;28;20048;-84
2023/08/02 12:02:38;;;;;;;5.22;2.75;;;19.80;99.90;;;;;;5055104;28;20437;-83
2023/08/02 12:05:08;;;;;;;4.72;2.97;;;19.90;99.90;;;;;;5058383;28;20056;-84
2023/08/02 12:07:35;;;;;;;7.18;3.50;;;19.90;99.90;;;;;;5059709;28;20102;-83
2023/08/02 12:10:04;;;;;;;5.28;2.88;;;20.10;99.90;;;;;;5058776;28;20031;-83
2023/08/02 12:12:34;;;;;;;5.65;2.70;;;20.20;99.90;;;;;;5078129;28;20029;-83
2023/08/02 12:15:10;;;;;;;4.65;3.10;;;20.20;99.90;;;;;;5059251;28;20041;-82
2023/08/02 12:17:35;;;;;;;5.25;3.20;;;20.30;99.90;;;;;;5060052;28;20068;-83
2023/08/02 12:20:02;;;;;;;5.45;3.13;;;20.30;99.90;;;;;;5076551;28;20491;-82
2023/08/02 12:22:27;;;;;;;6.28;3.17;;;20.40;99.90;;;;;;5058912;28;20028;-83
2023/08/02 12:25:04;;;;;;;5.57;3.30;;;20.30;99.90;;;;;;5059726;28;20048;-82
2023/08/02 12:27:30;;;;;;;4.15;2.88;;;20.40;99.90;;;;;;5059739;28;20029;-82
2023/08/02 12:30:11;;;;;;;5.93;2.90;;;20.30;99.90;;;;;;5063062;28;20032;-81
2023/08/02 12:32:37;;;;;;;5.25;2.97;;;20.30;99.90;;;;;;5060189;28;20453;-83
2023/08/02 12:35:11;;;;;;;5.20;3.17;;;20.30;99.90;;;;;;5059188;28;20032;-83
2023/08/02 12:37:36;;;;;;;6.30;2.92;;;20.30;99.90;;;;;;5060040;28;20032;-84
2023/08/02 12:40:03;;;;;;;4.57;3.03;;;20.30;99.90;;;;;;5059477;28;20021;-83
2023/08/02 12:42:28;;;;;;;6.15;3.30;;;20.30;99.90;;;;;;5056106;28;20032;-85
2023/08/02 12:44:54;;;;;;;4.65;2.95;;;20.30;99.90;;;;;;5071029;28;20020;-83
2023/08/02 12:47:20;;;;;;;5.88;3.20;;;20.50;99.90;;;;;;5058540;28;20500;-86